Time;durP1;ratioP1;P1;durP2;ratioP2;P2;SDS_P1;SDS_P2;PMS_P1;PMS_P2;Temp;Humidity;BMP_temperature;BMP_pressure;BME280_temperature;BME280_humidity;BME280_pressure;Samples;Min_cycle;Max_cycle;Signal;HPM_P1;HPM_P2
2022/11/06 00:00:19;;;;;;;30.30;21.42;;;;;;;7.52;72.46;101448.27;1719834;83;21266;-68
2022/11/06 00:02:45;;;;;;;29.05;21.05;;;;;;;7.47;72.64;101448.13;1714566;81;21555;-68
2022/11/06 00:07:57;;;;;;;30.77;22.15;;;;;;;7.41;72.84;101447.95;1714050;81;21043;-68
2022/11/06 00:10:24;;;;;;;28.80;19.52;;;;;;;7.44;72.84;101449.12;1716042;83;21055;-68
2022/11/06 00:12:51;;;;;;;29.72;21.05;;;;;;;7.48;72.62;101450.67;1715713;81;21246;-68
2022/11/06 00:15:17;;;;;;;28.20;20.82;;;;;;;7.52;72.42;101441.73;1728138;81;21642;-69
2022/11/06 00:17:49;;;;;;;29.72;20.75;;;;;;;7.52;72.51;101447.44;1721245;81;21058;-69
2022/11/06 00:20:17;;;;;;;29.20;21.62;;;;;;;7.47;72.65;101446.34;1722909;81;22214;-68
2022/11/06 00:22:44;;;;;;;29.23;20.27;;;;;;;7.44;72.60;101447.80;1716147;81;21086;-68
2022/11/06 00:25:12;;;;;;;27.32;18.95;;;;;;;7.45;72.50;101448.20;1718178;82;21039;-68
2022/11/06 00:27:42;;;;;;;29.15;19.92;;;;;;;7.50;72.45;101450.13;1721672;81;21012;-68
2022/11/06 00:30:12;;;;;;;26.35;21.40;;;;;;;7.51;72.30;101440.02;1746311;81;21015;-68
2022/11/06 00:32:39;;;;;;;31.70;21.73;;;;;;;7.50;72.40;101443.58;1732395;81;21059;-68
2022/11/06 00:35:07;;;;;;;29.98;21.37;;;;;;;7.47;72.43;101444.20;1745336;81;20991;-68
2022/11/06 00:37:35;;;;;;;29.00;20.65;;;;;;;7.42;72.56;101436.09;1716841;81;21249;-68
2022/11/06 00:40:01;;;;;;;28.23;20.43;;;;;;;7.42;72.56;101431.33;1717888;81;21083;-68
2022/11/06 00:42:28;;;;;;;27.17;19.70;;;;;;;7.46;72.32;101435.48;1730677;81;21043;-68
2022/11/06 00:44:55;;;;;;;29.50;21.35;;;;;;;7.45;72.32;101436.42;1746928;81;22239;-68
2022/11/06 00:47:22;;;;;;;31.87;21.10;;;;;;;7.42;72.45;101430.02;1729009;81;21085;-68
2022/11/06 00:49:49;;;;;;;26.42;20.40;;;;;;;7.39;72.41;101438.86;1729703;82;21244;-68
2022/11/06 00:52:16;;;;;;;31.35;20.15;;;;;;;7.36;72.37;101434.25;1734262;82;21030;-68
2022/11/06 00:54:43;;;;;;;28.52;18.73;;;;;;;7.34;72.43;101435.62;1713584;81;21056;-68
2022/11/06 00:57:10;;;;;;;28.35;19.92;;;;;;;7.39;72.31;101428.86;1739561;82;21007;-69
2022/11/06 00:59:37;;;;;;;30.90;20.25;;;;;;;7.42;72.25;101430.02;1741274;82;21046;-68
2022/11/06 01:02:03;;;;;;;29.85;20.80;;;;;;;7.41;72.23;101429.63;1724824;81;21292;-68
2022/11/06 01:04:30;;;;;;;29.40;20.82;;;;;;;7.40;72.26;101426.64;1712050;82;21039;-68
2022/11/06 01:06:57;;;;;;;30.80;19.00;;;;;;;7.37;72.24;101430.72;1714123;82;21008;-69
2022/11/06 01:09:25;;;;;;;27.75;18.92;;;;;;;7.34;72.13;101420.39;1740949;81;21083;-69
2022/11/06 01:11:56;;;;;;;32.78;18.42;;;;;;;7.36;72.05;101422.02;1738290;82;21024;-68
2022/11/06 01:14:23;;;;;;;28.95;19.45;;;;;;;7.39;72.06;101428.86;1677216;85;21148;-68
2022/11/06 01:16:51;;;;;;;29.05;20.80;;;;;;;7.39;72.18;101428.86;1716890;82;21031;-68
2022/11/06 01:19:19;;;;;;;26.17;19.45;;;;;;;7.36;72.23;101431.62;1731427;82;21090;-68
2022/11/06 01:21:49;;;;;;;27.98;19.73;;;;;;;7.29;72.31;101428.47;1741032;82;21027;-68
2022/11/06 01:24:21;;;;;;;26.85;17.82;;;;;;;7.29;72.34;101434.17;1741482;82;21033;-68
2022/11/06 01:26:50;;;;;;;25.35;18.87;;;;;;;7.33;72.24;101419.99;1738736;81;21078;-68
2022/11/06 01:29:17;;;;;;;29.12;19.82;;;;;;;7.33;72.22;101424.78;1736229;82;21052;-68
2022/11/06 01:31:48;;;;;;;27.80;20.45;;;;;;;7.32;72.39;101429.63;1741235;82;21608;-69
2022/11/06 01:34:15;;;;;;;29.40;20.97;;;;;;;7.30;72.52;101422.31;1718150;82;22496;-68
2022/11/06 01:36:41;;;;;;;27.98;19.00;;;;;;;7.28;72.47;101423.30;1741148;82;21071;-69
2022/11/06 01:39:11;;;;;;;28.32;19.20;;;;;;;7.27;72.40;101428.17;1740340;82;21256;-68
2022/11/06 01:41:48;;;;;;;27.73;19.65;;;;;;;7.32;72.28;101427.48;1723976;82;21102;-68
2022/11/06 01:44:43;;;;;;;25.70;19.45;;;;;;;7.36;72.15;101432.94;1715472;81;21019;-69
2022/11/06 01:47:26;;;;;;;25.43;19.92;;;;;;;7.36;72.13;101428.56;1721907;82;21561;-67
2022/11/06 01:49:58;;;;;;;28.52;20.08;;;;;;;7.29;72.13;101427.16;1715765;82;21082;-69
2022/11/06 01:52:26;;;;;;;27.35;19.32;;;;;;;7.21;72.38;101429.30;1712362;82;21211;-68
2022/11/06 01:54:56;;;;;;;25.23;18.73;;;;;;;7.23;72.40;101424.86;1676855;85;21019;-69
2022/11/06 01:57:22;;;;;;;27.40;19.05;;;;;;;7.28;72.23;101430.72;1715798;82;21623;-68
2022/11/06 01:59:50;;;;;;;26.70;20.62;;;;;;;7.30;72.23;101430.64;1740957;82;21054;-68
2022/11/06 02:02:17;;;;;;;26.25;18.95;;;;;;;7.30;72.37;101431.95;1736296;81;21047;-68
2022/11/06 02:04:47;;;;;;;27.20;19.48;;;;;;;7.29;72.45;101430.25;1677019;85;21230;-69
2022/11/06 02:07:14;;;;;;;26.90;17.90;;;;;;;7.27;72.55;101432.94;1731719;82;21043;-69
2022/11/06 02:09:40;;;;;;;29.75;17.98;;;;;;;7.30;72.54;101429.33;1712098;82;21004;-69
2022/11/06 02:12:48;;;;;;;26.23;18.02;;;;;;;7.33;72.32;101433.95;1711935;82;21047;-68
2022/11/06 02:16:03;;;;;;;24.45;18.60;;;;;;;7.38;72.32;101432.39;1711448;83;21023;-68
2022/11/06 02:18:56;;;;;;;25.48;18.45;;;;;;;7.38;72.57;101438.50;1704824;82;21144;-69
2022/11/06 02:21:55;;;;;;;29.70;19.50;;;;;;;7.33;72.71;101429.16;1711780;82;21107;-69
2022/11/06 02:24:36;;;;;;;29.07;18.77;;;;;;;7.36;72.69;101432.94;1712359;82;22211;-70
2022/11/06 02:27:15;;;;;;;28.25;18.73;;;;;;;7.42;72.46;101436.09;1672397;85;21890;-70
2022/11/06 02:30:04;;;;;;;27.48;19.30;;;;;;;7.44;72.54;101437.33;1740437;82;21004;-70
2022/11/06 02:32:51;;;;;;;30.05;21.55;;;;;;;7.42;72.73;101431.33;1736764;82;21940;-69
2022/11/06 02:35:41;;;;;;;29.82;20.12;;;;;;;7.43;72.85;101440.86;1676118;84;21055;-69
2022/11/06 02:38:11;;;;;;;31.23;20.85;;;;;;;7.39;72.80;101436.72;1740514;82;21090;-69
2022/11/06 02:40:55;;;;;;;32.20;19.90;;;;;;;7.43;72.81;101430.39;1740673;82;21607;-69
2022/11/06 02:43:28;;;;;;;29.07;20.37;;;;;;;7.47;72.63;101429.33;1739479;82;21078;-69
2022/11/06 02:46:05;;;;;;;33.65;21.93;;;;;;;7.51;72.52;101431.33;1712029;82;22049;-69
2022/11/06 02:48:42;;;;;;;33.53;21.40;;;;;;;7.51;72.62;101432.16;1730573;81;21090;-69
2022/11/06 02:51:10;;;;;;;29.72;21.40;;;;;;;7.48;72.60;101427.55;1719365;81;21061;-70
2022/11/06 02:53:37;;;;;;;30.65;21.37;;;;;;;7.46;72.69;101430.71;1731569;81;21580;-69
2022/11/06 02:56:10;;;;;;;30.92;20.85;;;;;;;7.51;72.62;101428.23;1738186;82;21077;-69
2022/11/06 02:58:48;;;;;;;35.98;22.30;;;;;;;7.59;72.41;101431.31;1733788;82;21180;-69
2022/11/06 03:01:29;;;;;;;30.88;22.90;;;;;;;7.61;72.22;101429.93;1733602;82;22204;-69
2022/11/06 03:04:01;;;;;;;34.48;22.45;;;;;;;7.59;72.21;101430.01;1726010;81;21012;-68
2022/11/06 03:06:41;;;;;;;37.30;23.40;;;;;;;7.55;72.38;101431.10;1734065;82;21647;-70
2022/11/06 03:09:21;;;;;;;34.15;22.90;;;;;;;7.53;72.49;101434.27;1733290;80;21034;-69
2022/11/06 03:12:20;;;;;;;32.48;22.70;;;;;;;7.53;72.36;101429.03;1735118;81;21212;-70
2022/11/06 03:15:08;;;;;;;37.48;25.68;;;;;;;7.56;72.21;101430.16;1738031;82;21032;-70
2022/11/06 03:17:49;;;;;;;39.00;25.50;;;;;;;7.55;72.11;101431.10;1738078;81;21106;-69
2022/11/06 03:20:38;;;;;;;35.43;22.62;;;;;;;7.52;72.19;101433.87;1734501;81;21063;-70
2022/11/06 03:23:13;;;;;;;37.93;24.30;;;;;;;7.47;72.21;101429.80;1714833;81;21488;-70
2022/11/06 03:26:04;;;;;;;34.67;24.23;;;;;;;7.44;72.32;101431.62;1745789;81;21088;-70
2022/11/06 03:28:38;;;;;;;37.03;23.87;;;;;;;7.48;72.20;101424.48;1746474;81;21094;-69
2022/11/06 03:31:08;;;;;;;38.65;22.90;;;;;;;7.50;72.03;101426.56;1745572;81;21089;-68
2022/11/06 03:33:44;;;;;;;35.63;24.12;;;;;;;7.50;72.14;101431.80;1748270;81;20998;-69
2022/11/06 03:36:21;;;;;;;38.78;24.67;;;;;;;7.44;72.41;101432.93;1750679;81;21090;-69
2022/11/06 03:38:51;;;;;;;36.50;24.57;;;;;;;7.39;72.54;101431.01;1746399;81;21277;-69
2022/11/06 03:41:28;;;;;;;40.48;25.65;;;;;;;7.37;72.74;101433.33;1745547;81;21043;-68
2022/11/06 03:43:56;;;;;;;35.08;24.92;;;;;;;7.40;72.79;101437.95;1748006;80;20999;-69
2022/11/06 03:46:24;;;;;;;37.40;25.15;;;;;;;7.48;72.76;101440.64;1748203;81;21039;-69
2022/11/06 03:49:04;;;;;;;36.10;26.60;;;;;;;7.52;72.69;101429.94;1745229;81;21569;-70
2022/11/06 03:51:56;;;;;;;43.87;27.45;;;;;;;7.51;72.76;101430.02;1735427;82;21259;-69
2022/11/06 03:54:26;;;;;;;41.65;25.77;;;;;;;7.53;72.81;101437.33;1737956;81;21102;-69
2022/11/06 03:57:23;;;;;;;38.10;25.97;;;;;;;7.51;72.82;101434.78;1740615;81;21043;-69
2022/11/06 03:59:54;;;;;;;37.83;25.68;;;;;;;7.53;72.65;101432.09;1738102;81;22287;-69
2022/11/06 04:02:21;;;;;;;21.02;11.75;;;;;;;7.58;72.41;101429.64;1739320;81;21521;-69
2022/11/06 04:04:58;;;;;;;38.60;26.40;;;;;;;7.54;72.39;101424.16;1740260;82;21302;-70
2022/11/06 04:07:29;;;;;;;38.73;26.37;;;;;;;7.50;72.48;101427.87;1738531;82;21106;-69
2022/11/06 04:15:40;;;;;;;36.63;25.32;;;;;;;7.49;72.56;101415.69;1743114;82;21107;-68
2022/11/06 04:18:13;;;;;;;45.98;27.67;;;;;;;7.53;72.42;101416.37;1736659;81;21125;-69
2022/11/06 04:21:20;;;;;;;39.33;25.90;;;;;;;7.55;72.50;101414.08;1710516;82;20983;-68
2022/11/06 04:26:55;;;;;;;38.00;25.92;;;;;;;7.43;72.75;101404.20;1725163;82;21111;-68
2022/11/06 04:29:57;;;;;;;46.60;27.40;;;;;;;7.42;72.90;101401.22;1729024;82;21091;-67
2022/11/06 04:32:44;;;;;;;40.90;27.25;;;;;;;7.46;72.70;101410.59;1730440;82;21146;-69
2022/11/06 04:35:36;;;;;;;39.33;27.20;;;;;;;7.43;72.85;101408.12;1721581;81;21015;-68
2022/11/06 04:38:20;;;;;;;39.42;28.00;;;;;;;7.44;73.13;101412.45;1731824;82;21053;-68
2022/11/06 04:41:04;;;;;;;42.83;25.12;;;;;;;7.43;73.06;101415.55;1736593;82;21102;-68
2022/11/06 04:43:50;;;;;;;39.67;27.02;;;;;;;7.42;72.94;101419.55;1717740;82;22277;-67
2022/11/06 04:46:25;;;;;;;38.60;26.62;;;;;;;7.47;72.90;101418.85;1737528;82;22152;-69
2022/11/06 04:48:51;;;;;;;40.05;25.43;;;;;;;7.49;72.82;101423.54;1736945;82;21075;-69
2022/11/06 04:51:21;;;;;;;40.45;27.45;;;;;;;7.48;72.83;101421.00;1728947;81;21050;-69
2022/11/06 04:53:50;;;;;;;38.65;25.97;;;;;;;7.44;72.97;101423.77;1711637;82;21141;-69
2022/11/06 04:56:32;;;;;;;42.27;24.92;;;;;;;7.42;73.09;101424.78;1713557;82;21114;-69
2022/11/06 04:58:59;;;;;;;43.48;25.75;;;;;;;7.43;73.03;101423.84;1721275;81;21314;-69
2022/11/06 05:01:26;;;;;;;38.00;25.77;;;;;;;7.53;72.93;101432.95;1732210;81;20995;-68
2022/11/06 05:03:52;;;;;;;39.90;25.75;;;;;;;7.54;72.80;101428.55;1741398;82;21035;-69
2022/11/06 05:06:19;;;;;;;39.38;26.57;;;;;;;7.51;72.92;101433.47;1743056;82;21105;-69
2022/11/06 05:08:45;;;;;;;42.15;25.92;;;;;;;7.48;72.91;101432.78;1740252;82;21003;-69
2022/11/06 05:11:13;;;;;;;35.58;23.32;;;;;;;7.42;73.07;101432.64;1740531;82;21034;-68
2022/11/06 05:13:41;;;;;;;36.53;23.87;;;;;;;7.41;73.07;101430.94;1740424;82;21587;-69
2022/11/06 05:16:08;;;;;;;35.50;22.32;;;;;;;7.45;73.12;101432.49;1741447;82;22307;-69
2022/11/06 05:18:36;;;;;;;33.50;23.65;;;;;;;7.48;73.16;101442.82;1741036;82;21084;-69
2022/11/06 05:23:50;;;;;;;34.58;23.42;;;;;;;7.45;73.20;101437.73;1731260;82;21227;-69
2022/11/06 05:26:17;;;;;;;41.50;25.12;;;;;;;7.41;73.34;101447.95;1733187;82;21042;-69
2022/11/06 05:28:44;;;;;;;36.00;23.52;;;;;;;7.45;73.32;101454.75;1742636;82;21055;-68
2022/11/06 05:31:10;;;;;;;36.88;24.27;;;;;;;7.50;73.21;101448.82;1743359;82;21026;-69
2022/11/06 05:33:37;;;;;;;39.15;23.85;;;;;;;7.52;73.10;101447.44;1723264;82;21046;-69
2022/11/06 05:36:05;;;;;;;36.17;23.98;;;;;;;7.52;73.25;101452.67;1730801;82;21495;-69
2022/11/06 05:38:32;;;;;;;36.40;24.30;;;;;;;7.50;73.34;101453.19;1721114;82;21051;-68
2022/11/06 05:40:59;;;;;;;38.83;23.22;;;;;;;7.46;73.43;101457.73;1725781;82;21143;-69
2022/11/06 05:43:25;;;;;;;38.55;23.25;;;;;;;7.51;73.48;101454.89;1726890;81;21083;-69
2022/11/06 05:45:52;;;;;;;39.67;24.95;;;;;;;7.55;73.29;101452.05;1731126;82;21059;-69
2022/11/06 05:48:18;;;;;;;36.10;24.67;;;;;;;7.51;73.40;101450.97;1723126;82;21233;-68
2022/11/06 05:50:45;;;;;;;39.20;23.62;;;;;;;7.47;73.53;101459.45;1741965;82;21071;-69
2022/11/06 05:53:15;;;;;;;36.28;22.67;;;;;;;7.41;73.69;101468.47;1734165;81;21133;-69
2022/11/06 05:55:46;;;;;;;38.67;22.30;;;;;;;7.38;73.85;101462.50;1734110;82;21082;-69
2022/11/06 05:58:13;;;;;;;32.33;20.77;;;;;;;7.38;73.79;101463.38;1741393;81;22174;-69
2022/11/06 06:00:40;;;;;;;36.53;22.70;;;;;;;7.43;73.75;101468.36;1747208;80;21154;-68
2022/11/06 06:03:06;;;;;;;28.30;21.12;;;;;;;7.48;73.60;101470.76;1748243;81;20999;-69
2022/11/06 06:05:34;;;;;;;36.63;22.07;;;;;;;7.47;73.66;101482.17;1748794;82;21976;-68
2022/11/06 06:08:01;;;;;;;35.55;21.68;;;;;;;7.43;73.71;101479.70;1742615;81;21832;-69
2022/11/06 06:10:29;;;;;;;37.75;21.73;;;;;;;7.41;73.77;101484.61;1741735;81;21072;-69
2022/11/06 06:12:55;;;;;;;35.30;20.82;;;;;;;7.39;73.85;101480.76;1721828;81;21127;-69
2022/11/06 06:15:22;;;;;;;36.65;21.65;;;;;;;7.45;73.74;101483.56;1721523;80;21102;-68
2022/11/06 06:17:49;;;;;;;37.50;22.42;;;;;;;7.50;73.71;101480.25;1736627;81;21051;-67
2022/11/06 06:34:04;;;;;;;31.50;20.17;;;;;;;8.19;72.07;101480.65;1709639;81;22898;-50
2022/11/06 06:36:32;;;;;;;32.45;20.77;;;;;;;8.26;71.71;101482.48;1673180;84;21567;-50
2022/11/06 06:38:59;;;;;;;31.20;20.77;;;;;;;8.28;71.75;101483.24;1678250;85;21752;-49
2022/11/06 06:41:25;;;;;;;33.38;21.48;;;;;;;8.26;71.49;101492.14;1678193;83;21129;-48
2022/11/06 06:43:52;;;;;;;32.15;18.95;;;;;;;8.15;71.37;101493.99;1676773;84;21026;-48
2022/11/06 06:46:19;;;;;;;33.60;19.45;;;;;;;8.03;71.37;101491.55;1674627;85;21110;-48
2022/11/06 06:48:46;;;;;;;29.77;19.23;;;;;;;7.94;71.49;101492.88;1671611;85;21180;-50
2022/11/06 06:51:13;;;;;;;30.45;19.95;;;;;;;7.93;71.57;101492.47;1671494;85;21119;-50
2022/11/06 06:53:40;;;;;;;32.17;19.40;;;;;;;7.96;71.70;101503.28;1671943;83;22388;-48
2022/11/06 06:56:07;;;;;;;33.50;20.70;;;;;;;7.93;71.68;101502.12;1677183;85;21118;-48
2022/11/06 06:58:34;;;;;;;32.53;20.23;;;;;;;7.89;71.86;101505.36;1672112;85;21094;-48
2022/11/06 07:01:03;;;;;;;33.10;19.55;;;;;;;7.83;71.92;101494.34;1677182;85;21051;-49
2022/11/06 07:03:30;;;;;;;31.87;19.90;;;;;;;7.79;71.75;101495.80;1671481;83;21102;-49
2022/11/06 07:05:57;;;;;;;27.00;20.27;;;;;;;7.80;71.88;101496.64;1674539;85;21077;-49
2022/11/06 07:08:26;;;;;;;32.85;20.25;;;;;;;7.80;72.05;101496.20;1672798;84;21023;-50
2022/11/06 07:10:58;;;;;;;33.92;21.35;;;;;;;7.77;72.16;101493.73;1673700;85;21102;-48
2022/11/06 07:13:26;;;;;;;30.52;20.50;;;;;;;7.74;72.21;101495.66;1671974;84;21087;-49
2022/11/06 07:15:53;;;;;;;33.25;18.10;;;;;;;7.70;72.35;101499.34;1671511;84;21198;-51
2022/11/06 07:18:20;;;;;;;29.95;19.37;;;;;;;7.71;72.46;101501.05;1679256;84;21515;-49
2022/11/06 07:20:46;;;;;;;34.10;21.00;;;;;;;7.77;72.29;101505.52;1673105;85;21116;-51
2022/11/06 07:23:13;;;;;;;30.20;19.20;;;;;;;7.81;72.22;101502.28;1681651;83;21484;-49
2022/11/06 07:25:40;;;;;;;31.68;20.60;;;;;;;7.77;72.21;101502.06;1673396;85;21067;-49
2022/11/06 07:28:06;;;;;;;31.77;21.00;;;;;;;7.75;72.33;101509.13;1677321;85;21262;-49
2022/11/06 07:30:34;;;;;;;34.58;20.70;;;;;;;7.73;72.51;101504.44;1675985;83;21562;-50
2022/11/06 07:33:02;;;;;;;31.30;19.32;;;;;;;7.79;72.54;101508.06;1683158;83;21432;-49
2022/11/06 07:35:29;;;;;;;34.08;20.43;;;;;;;7.84;72.23;101510.47;1656948;86;21065;-49
2022/11/06 07:37:56;;;;;;;29.90;19.75;;;;;;;7.88;72.30;101503.66;1645621;85;21023;-49
2022/11/06 07:40:23;;;;;;;31.40;21.35;;;;;;;7.91;72.38;101500.88;1642932;85;21156;-52
2022/11/06 07:42:51;;;;;;;35.70;22.37;;;;;;;7.90;72.19;101505.76;1642546;85;21090;-49
2022/11/06 07:45:18;;;;;;;29.57;20.77;;;;;;;7.87;72.21;101509.84;1648105;85;21132;-49
2022/11/06 07:47:46;;;;;;;34.55;21.07;;;;;;;7.88;72.15;101514.14;1655778;85;21071;-49
2022/11/06 07:50:13;;;;;;;33.15;20.15;;;;;;;7.95;71.94;101512.92;1642191;86;21118;-49
2022/11/06 07:52:40;;;;;;;30.25;20.20;;;;;;;7.98;71.73;101515.83;1651224;86;22270;-49
2022/11/06 07:55:08;;;;;;;34.40;21.15;;;;;;;7.93;71.84;101517.84;1644568;86;21069;-49
2022/11/06 07:57:36;;;;;;;32.58;21.70;;;;;;;7.91;71.91;101524.47;1643912;86;22274;-49
2022/11/06 08:00:05;;;;;;;29.87;19.50;;;;;;;7.90;72.03;101522.80;1630426;87;21584;-48
2022/11/06 08:02:34;;;;;;;30.43;19.10;;;;;;;7.93;71.93;101523.08;1628431;87;21055;-50
2022/11/06 08:05:00;;;;;;;29.20;20.12;;;;;;;7.97;71.73;101521.55;1640014;85;21247;-49
2022/11/06 08:07:27;;;;;;;35.45;20.48;;;;;;;8.00;71.73;101524.02;1644035;87;21577;-49
2022/11/06 08:09:53;;;;;;;41.88;22.17;;;;;;;8.02;71.83;101518.70;1629074;87;21524;-49
2022/11/06 08:12:20;;;;;;;33.33;20.82;;;;;;;8.03;71.69;101517.75;1629127;87;21142;-49
2022/11/06 08:14:47;;;;;;;32.53;19.35;;;;;;;7.98;71.48;101521.08;1630305;86;21062;-49
2022/11/06 08:17:15;;;;;;;28.80;18.65;;;;;;;7.95;71.54;101512.92;1638678;87;21143;-49
2022/11/06 08:19:42;;;;;;;36.65;20.57;;;;;;;8.04;71.24;101518.63;1633444;86;21506;-49
2022/11/06 08:22:09;;;;;;;31.85;19.70;;;;;;;8.05;71.27;101520.30;1636045;85;21548;-48
2022/11/06 08:24:37;;;;;;;30.43;19.80;;;;;;;8.08;71.33;101526.70;1634356;85;21043;-49
2022/11/06 08:27:04;;;;;;;32.42;21.25;;;;;;;8.06;71.35;101529.88;1634332;87;21091;-48
2022/11/06 08:29:31;;;;;;;34.88;19.15;;;;;;;8.02;71.39;101528.31;1656176;86;21258;-48
2022/11/06 08:31:57;;;;;;;31.85;18.48;;;;;;;8.03;71.32;101530.86;1644535;87;21047;-48
2022/11/06 08:34:24;;;;;;;34.15;21.45;;;;;;;8.06;71.16;101533.33;1656989;86;21063;-48
2022/11/06 08:36:51;;;;;;;31.48;20.68;;;;;;;8.06;71.03;101537.27;1630195;87;21732;-51
2022/11/06 08:39:18;;;;;;;31.00;20.35;;;;;;;8.02;71.14;101542.73;1644432;86;21090;-49
2022/11/06 08:41:45;;;;;;;32.23;20.85;;;;;;;7.99;71.42;101540.66;1641374;85;21309;-49
2022/11/06 08:44:11;;;;;;;31.70;19.05;;;;;;;7.94;71.47;101538.73;1615052;87;21603;-49
2022/11/06 08:46:38;;;;;;;29.10;18.75;;;;;;;7.95;71.38;101540.88;1646184;86;21113;-49
2022/11/06 08:49:05;;;;;;;28.47;18.98;;;;;;;7.93;71.50;101540.12;1642937;86;21053;-49
2022/11/06 08:51:31;;;;;;;36.48;20.72;;;;;;;7.95;71.63;101536.95;1619856;87;21040;-49
2022/11/06 08:53:57;;;;;;;30.25;21.35;;;;;;;7.93;71.67;101542.27;1642966;86;21213;-49
2022/11/06 08:56:24;;;;;;;37.58;21.62;;;;;;;7.92;71.69;101540.59;1640780;86;21114;-49
2022/11/06 08:58:51;;;;;;;29.70;18.98;;;;;;;7.89;71.60;101549.91;1642270;86;22268;-49
2022/11/06 09:01:18;;;;;;;32.42;20.00;;;;;;;7.85;71.60;101549.70;1640916;86;21569;-49
2022/11/06 09:03:44;;;;;;;31.30;20.40;;;;;;;7.90;71.59;101552.94;1639575;87;21043;-49
2022/11/06 09:06:12;;;;;;;33.28;20.68;;;;;;;7.91;71.58;101549.84;1657101;86;21245;-49
2022/11/06 09:08:38;;;;;;;33.63;21.45;;;;;;;7.89;71.78;101553.84;1642333;87;21084;-50
2022/11/06 09:11:09;;;;;;;32.83;20.40;;;;;;;7.87;71.81;101551.77;1657143;86;21062;-49
2022/11/06 09:13:37;;;;;;;28.47;19.25;;;;;;;7.82;72.00;101549.84;1629805;86;21070;-49
2022/11/06 09:16:05;;;;;;;31.90;19.73;;;;;;;7.86;72.09;101551.38;1641103;87;21098;-49
2022/11/06 09:18:32;;;;;;;28.35;19.25;;;;;;;7.92;71.96;101556.31;1642027;87;21208;-49
2022/11/06 09:20:58;;;;;;;32.60;21.10;;;;;;;7.94;71.85;101553.15;1649482;87;21300;-49
2022/11/06 09:23:25;;;;;;;27.77;20.12;;;;;;;7.98;71.89;101549.47;1639919;87;21118;-49
2022/11/06 09:25:51;;;;;;;29.48;20.70;;;;;;;7.92;71.97;101548.92;1632853;86;21040;-49
2022/11/06 09:28:18;;;;;;;27.37;19.12;;;;;;;7.89;72.27;101550.38;1634079;87;21059;-49
2022/11/06 09:30:46;;;;;;;29.48;19.07;;;;;;;7.89;72.19;101543.83;1630877;87;21554;-49
2022/11/06 09:33:13;;;;;;;27.67;19.82;;;;;;;7.95;72.11;101543.06;1632761;85;21727;-49
2022/11/06 09:35:40;;;;;;;29.80;19.85;;;;;;;7.98;71.94;101540.30;1634048;87;21561;-49
2022/11/06 09:38:10;;;;;;;31.68;20.50;;;;;;;7.95;71.89;101539.13;1632819;87;21103;-50
2022/11/06 09:40:53;;;;;;;30.15;19.98;;;;;;;7.95;72.06;101537.82;1606022;87;21656;-49
2022/11/06 09:44:03;;;;;;;33.42;19.50;;;;;;;7.94;72.02;101540.52;1632139;87;21254;-49
2022/11/06 09:46:35;;;;;;;15.60;8.68;;;;;;;7.97;72.04;101536.44;1635958;87;21363;-50
2022/11/06 09:49:20;;;;;;;33.55;20.08;;;;;;;8.06;71.88;101537.27;1600296;88;21083;-49
2022/11/06 09:52:18;;;;;;;34.65;21.42;;;;;;;8.10;71.60;101535.33;1598458;88;21489;-49
2022/11/06 09:54:49;;;;;;;38.53;23.90;;;;;;;8.05;71.52;101537.34;1607382;87;21218;-50
2022/11/06 09:57:24;;;;;;;35.80;21.70;;;;;;;7.97;71.59;101537.27;1598509;89;21262;-50
2022/11/06 09:59:50;;;;;;;33.27;20.83;;;;;;;7.92;71.65;101541.91;1598774;89;21098;-49
2022/11/06 10:02:35;;;;;;;31.45;20.35;;;;;;;7.90;71.78;101550.75;1595035;88;21059;-49
2022/11/06 10:05:21;;;;;;;32.90;21.50;;;;;;;7.94;71.74;101542.66;1584370;90;21090;-49
2022/11/06 10:19:45;;;;;;;24.50;15.35;;;;;;;8.79;69.81;101521.70;1842895;76;22666;-61
2022/11/06 10:22:19;;;;;;;24.55;15.83;;;;;;;8.84;69.52;101523.60;1822871;78;20959;-63
2022/11/06 10:25:19;;;;;;;23.57;16.35;;;;;;;8.84;69.29;101519.22;1817102;78;21126;-62
2022/11/06 10:28:03;;;;;;;23.25;16.45;;;;;;;8.78;69.12;101517.39;1812948;78;21109;-64
2022/11/06 10:30:44;;;;;;;25.62;16.77;;;;;;;8.67;68.97;101521.42;1793784;78;21093;-63
2022/11/06 10:33:30;;;;;;;22.98;15.25;;;;;;;8.56;69.03;101517.23;1797276;78;21101;-64
2022/11/06 10:36:16;;;;;;;22.07;15.23;;;;;;;8.45;69.22;101515.64;1820706;78;21026;-64
2022/11/06 10:38:46;;;;;;;21.97;15.83;;;;;;;8.37;69.17;101511.63;1804064;78;21222;-64
2022/11/06 10:41:29;;;;;;;24.20;16.12;;;;;;;8.37;69.25;101510.75;1826511;78;21034;-64
2022/11/06 10:44:07;;;;;;;28.23;16.30;;;;;;;8.35;69.25;101509.55;1778080;80;21567;-64
2022/11/06 10:46:39;;;;;;;21.87;15.78;;;;;;;8.32;69.40;101508.39;1766896;80;21537;-63
2022/11/06 10:49:36;;;;;;;26.17;18.73;;;;;;;8.26;69.38;101507.39;1764576;80;21611;-63
2022/11/06 10:52:29;;;;;;;28.27;18.23;;;;;;;8.25;69.78;101502.23;1760022;80;21214;-61
2022/11/06 10:55:33;;;;;;;24.52;17.65;;;;;;;8.25;69.92;101498.30;1745732;80;21501;-63
2022/11/06 10:58:13;;;;;;;24.77;17.48;;;;;;;8.27;69.90;101497.75;1753215;80;21098;-63
2022/11/06 11:00:40;;;;;;;23.55;17.25;;;;;;;8.21;70.22;101489.75;1775325;80;21035;-64
2022/11/06 11:03:31;;;;;;;28.77;20.23;;;;;;;8.17;70.49;101493.47;1770308;79;20999;-64
2022/11/06 11:05:58;;;;;;;30.90;19.48;;;;;;;8.15;70.67;101494.86;1747142;80;21934;-63
2022/11/06 11:08:33;;;;;;;27.45;17.65;;;;;;;8.09;70.75;101498.27;1765589;80;21063;-63
2022/11/06 11:11:24;;;;;;;26.75;16.85;;;;;;;8.07;70.97;101494.41;1775491;80;21059;-64
2022/11/06 11:14:02;;;;;;;27.20;18.98;;;;;;;8.15;70.81;101483.06;1774208;80;21054;-63
2022/11/06 11:16:36;;;;;;;27.25;17.40;;;;;;;8.16;70.57;101481.28;1770757;80;21094;-63
2022/11/06 11:19:34;;;;;;;29.23;19.67;;;;;;;8.13;70.60;101477.03;1775157;80;21138;-64
2022/11/06 11:22:05;;;;;;;32.25;19.05;;;;;;;8.11;70.78;101475.43;1775423;80;21063;-63
2022/11/06 11:24:32;;;;;;;26.68;17.90;;;;;;;8.08;71.02;101472.48;1766015;80;22316;-63
2022/11/06 11:27:01;;;;;;;25.70;17.07;;;;;;;8.09;71.11;101465.02;1767322;80;21474;-62
2022/11/06 11:29:46;;;;;;;27.00;18.82;;;;;;;8.16;71.14;101470.79;1765027;80;21102;-63
2022/11/06 11:32:14;;;;;;;25.02;19.02;;;;;;;8.18;71.12;101470.23;1753489;80;22229;-62
2022/11/06 11:34:50;;;;;;;28.57;19.67;;;;;;;8.19;71.33;101470.64;1744874;80;21006;-66
2022/11/06 11:37:30;;;;;;;;;;;;;;;8.18;71.34;101474.17;1765658;80;21216;-66
2022/11/06 11:40:35;;;;;;;28.27;19.17;;;;;;;8.13;71.30;101468.33;1756387;80;20244;-63
2022/11/06 11:43:26;;;;;;;25.45;17.80;;;;;;;8.04;71.42;101463.58;1748661;80;21134;-64
2022/11/06 11:46:13;;;;;;;25.62;17.23;;;;;;;8.07;71.31;101466.02;1769974;80;21144;-64
2022/11/06 11:48:55;;;;;;;28.47;19.05;;;;;;;8.05;71.31;101463.94;1767210;80;21070;-64
2022/11/06 11:51:40;;;;;;;28.67;18.80;;;;;;;8.02;71.53;101463.66;1764757;80;21058;-63
2022/11/06 11:54:15;;;;;;;27.07;17.70;;;;;;;7.97;71.70;101461.73;1770836;80;21081;-63
2022/11/06 11:56:52;;;;;;;26.20;17.17;;;;;;;7.90;72.00;101475.62;1750801;80;21073;-64
2022/11/06 11:59:38;;;;;;;21.00;15.70;;;;;;;7.94;71.92;101467.97;1747251;80;21114;-64
2022/11/06 12:02:37;;;;;;;24.80;16.57;;;;;;;8.04;71.61;101464.89;1753986;80;21094;-62
2022/11/06 12:05:09;;;;;;;28.50;18.48;;;;;;;8.10;71.57;101464.55;1694507;80;21106;-64
2022/11/06 12:07:39;;;;;;;24.30;18.65;;;;;;;8.11;71.52;101462.33;1764871;80;21552;-63
2022/11/06 12:10:36;;;;;;;23.98;16.80;;;;;;;8.04;71.48;101463.58;1770071;80;21559;-64
2022/11/06 12:13:06;;;;;;;27.65;17.30;;;;;;;7.93;71.65;101466.27;1773862;80;21219;-64
2022/11/06 12:15:59;;;;;;;23.40;15.88;;;;;;;7.93;71.80;101464.12;1772574;80;21604;-63
2022/11/06 12:18:39;;;;;;;24.43;17.50;;;;;;;7.98;71.70;101459.05;1764470;80;21113;-63
2022/11/06 12:21:13;;;;;;;23.45;16.62;;;;;;;8.00;71.70;101460.24;1750556;80;21113;-63
2022/11/06 12:23:49;;;;;;;23.10;16.57;;;;;;;8.03;71.87;101463.19;1755519;80;21141;-64